createdAt,value
2018-10-19T00:00:58.214Z,28.43
2018-10-19T00:03:33.961Z,33.27
2018-10-19T00:06:09.868Z,34.97
2018-10-19T00:08:45.729Z,41.03
2018-10-19T00:11:21.749Z,30.17
2018-10-19T00:13:57.710Z,36.50
2018-10-19T00:16:33.523Z,32.67
2018-10-19T00:19:09.357Z,35.80
2018-10-19T00:21:45.342Z,32.30
2018-10-19T00:24:21.253Z,29.27
2018-10-19T00:26:57.280Z,36.67
2018-10-19T00:29:33.076Z,28.73
2018-10-19T00:32:09.036Z,35.63
2018-10-19T00:34:44.792Z,33.13
2018-10-19T00:37:20.559Z,24.43
2018-10-19T00:39:56.526Z,21.93
2018-10-19T00:42:32.442Z,25.87
2018-10-19T00:45:08.772Z,27.27
2018-10-19T00:47:44.919Z,26.43
2018-10-19T00:50:20.725Z,31.73
2018-10-19T00:52:56.561Z,32.00
2018-10-19T00:55:32.581Z,23.27
2018-10-19T00:58:08.528Z,29.70
2018-10-19T01:00:44.474Z,26.43
2018-10-19T01:03:20.404Z,28.47
2018-10-19T01:05:56.284Z,44.23
2018-10-19T01:08:32.236Z,22.57
2018-10-19T01:11:08.183Z,30.87
2018-10-19T01:13:44.109Z,39.87
2018-10-19T01:16:19.981Z,23.13
2018-10-19T01:18:55.988Z,31.70
2018-10-19T01:21:31.766Z,28.20
2018-10-19T01:24:07.615Z,31.90
2018-10-19T01:26:43.599Z,32.07
2018-10-19T01:29:19.541Z,34.77
2018-10-19T01:31:55.391Z,34.13
2018-10-19T01:34:31.205Z,39.87
2018-10-19T01:37:07.062Z,25.83
2018-10-19T01:39:42.947Z,25.23
2018-10-19T13:29:19.838Z,39.60
2018-10-19T13:31:50.770Z,49.83
2018-10-19T13:34:21.734Z,41.30
2018-10-19T13:36:53.577Z,37.23
2018-10-19T13:39:24.431Z,33.00
2018-10-19T13:41:55.382Z,31.10
2018-10-19T13:44:26.980Z,36.83
2018-10-19T13:46:57.914Z,38.47
2018-10-19T13:49:29.007Z,45.73
2018-10-19T13:52:00.078Z,42.23
2018-10-19T13:54:30.961Z,63.30
2018-10-19T13:57:01.847Z,62.60
2018-10-19T13:59:33.033Z,61.03
2018-10-19T14:02:03.976Z,45.93
2018-10-19T14:04:34.848Z,53.50
2018-10-19T14:07:06.224Z,62.70
2018-10-19T14:09:37.024Z,55.37
2018-10-19T14:12:07.964Z,51.90
2018-10-19T14:14:38.799Z,42.77
2018-10-19T14:17:13.134Z,44.90
2018-10-19T14:19:44.229Z,59.47
2018-10-19T14:22:15.164Z,52.13
2018-10-19T14:24:46.112Z,39.63
2018-10-19T14:27:17.092Z,53.60
2018-10-19T14:29:48.071Z,38.87
2018-10-19T14:32:18.974Z,44.60
2018-10-19T14:34:49.811Z,41.20
2018-10-19T14:37:20.778Z,42.37
2018-10-19T14:39:51.612Z,33.83
2018-10-19T14:42:22.501Z,63.10
2018-10-19T14:44:53.339Z,54.80
2018-10-19T14:47:24.233Z,54.20
2018-10-19T14:49:55.122Z,68.57
2018-10-19T14:52:26.771Z,48.40
2018-10-19T14:54:57.671Z,46.03
2018-10-19T14:57:28.565Z,44.40
2018-10-19T14:59:59.548Z,62.53
2018-10-19T15:02:30.453Z,49.03
2018-10-19T15:05:01.345Z,40.70
2018-10-19T15:07:32.590Z,43.87
2018-10-19T15:10:03.540Z,72.67
2018-10-19T15:12:34.817Z,65.03
2018-10-19T15:15:05.847Z,116.90
2018-10-19T15:17:36.781Z,105.87
2018-10-19T15:20:07.707Z,128.60
2018-10-19T15:22:38.687Z,163.90
2018-10-19T15:25:10.371Z,75.27
2018-10-19T15:27:43.295Z,73.67
2018-10-19T15:30:15.849Z,113.20
2018-10-19T15:32:47.477Z,41.30
2018-10-19T15:35:18.342Z,49.87
2018-10-19T15:37:49.238Z,57.03
2018-10-19T15:40:20.193Z,90.63
2018-10-19T15:42:54.066Z,38.30
2018-10-19T15:45:24.930Z,49.33
2018-10-19T15:47:55.869Z,50.00
2018-10-19T15:50:32.748Z,76.33
2018-10-19T15:53:04.257Z,67.60
2018-10-19T15:55:35.147Z,71.00
2018-10-19T15:58:06.298Z,68.33
2018-10-19T16:00:37.252Z,46.40
2018-10-19T16:03:08.395Z,66.67
2018-10-19T16:05:39.528Z,63.00
2018-10-19T16:08:10.908Z,50.37
2018-10-19T16:10:41.792Z,34.53
2018-10-19T16:13:12.794Z,53.57
2018-10-19T16:15:43.654Z,54.63
2018-10-19T16:18:15.034Z,69.63
2018-10-19T16:20:46.109Z,75.50
2018-10-19T16:23:17.066Z,85.60
2018-10-19T16:25:49.050Z,146.30
2018-10-19T16:28:19.992Z,104.83
2018-10-19T16:30:51.057Z,114.00
2018-10-19T16:33:21.981Z,106.10
2018-10-19T16:35:52.953Z,115.33
2018-10-19T16:38:24.792Z,97.23
2018-10-19T16:40:55.754Z,88.60
2018-10-19T16:43:26.667Z,109.13
2018-10-19T16:45:57.542Z,103.13
2018-10-19T16:48:28.497Z,134.43
2018-10-19T16:50:59.389Z,137.17
2018-10-19T16:53:30.582Z,277.93
2018-10-19T16:56:01.445Z,182.57
2018-10-19T16:58:32.379Z,168.70
2018-10-19T17:01:03.341Z,212.13
2018-10-19T17:03:34.268Z,151.07
2018-10-19T17:06:05.765Z,157.13
2018-10-19T17:08:36.948Z,126.20
2018-10-19T17:11:07.814Z,128.87
2018-10-19T17:13:38.829Z,181.97
2018-10-19T17:16:09.853Z,214.27
2018-10-19T17:18:41.466Z,324.67
2018-10-19T17:21:12.403Z,236.70
2018-10-19T17:23:43.634Z,238.43
2018-10-19T17:26:14.716Z,249.80
2018-10-19T17:28:45.652Z,223.70
2018-10-19T17:31:16.636Z,233.27
2018-10-19T17:33:49.932Z,218.90
2018-10-19T17:36:20.872Z,161.83
2018-10-19T17:38:51.820Z,149.50
2018-10-19T17:41:22.692Z,154.30
2018-10-19T17:43:53.608Z,157.60
2018-10-19T17:46:27.579Z,184.33
2018-10-19T17:48:58.496Z,153.83
2018-10-19T17:51:29.568Z,157.00
2018-10-19T17:54:00.617Z,147.63
2018-10-19T17:56:31.821Z,109.50
2018-10-19T17:59:02.782Z,120.90
2018-10-19T18:01:36.608Z,119.37
2018-10-19T18:04:07.579Z,116.33
2018-10-19T18:06:38.809Z,122.60
2018-10-19T18:09:11.593Z,110.43
2018-10-19T18:11:43.725Z,109.17
2018-10-19T18:14:15.001Z,104.60
2018-10-19T18:16:45.915Z,110.40
2018-10-19T18:19:16.912Z,130.53
2018-10-19T18:21:47.901Z,120.80
2018-10-19T18:24:19.044Z,126.83
2018-10-19T18:26:50.659Z,159.23
2018-10-19T18:29:21.928Z,155.43
2018-10-19T18:31:53.313Z,171.60
2018-10-19T18:34:24.466Z,176.90
2018-10-19T18:36:55.452Z,171.47
2018-10-19T18:39:26.530Z,200.93
2018-10-19T18:41:57.525Z,159.27
2018-10-19T18:44:28.636Z,145.33
2018-10-19T18:46:59.608Z,142.50
2018-10-19T18:49:30.976Z,126.40
2018-10-19T18:52:01.859Z,125.80
2018-10-19T18:54:32.803Z,143.50
2018-10-19T18:57:03.667Z,106.70
2018-10-19T18:59:34.864Z,100.10
2018-10-19T19:02:06.651Z,86.30
2018-10-19T19:04:38.256Z,99.40
2018-10-19T19:07:10.070Z,89.07
2018-10-19T19:09:41.224Z,89.20
2018-10-19T19:12:12.283Z,144.97
2018-10-19T19:14:43.369Z,148.07
2018-10-19T19:17:14.777Z,158.30
2018-10-19T19:19:49.907Z,99.67
2018-10-19T19:22:20.781Z,97.00
2018-10-19T19:24:57.394Z,100.57
2018-10-19T19:27:28.236Z,74.77
2018-10-19T19:30:00.474Z,76.57
2018-10-19T19:32:31.353Z,73.90
2018-10-19T19:35:02.497Z,64.90
2018-10-19T19:37:34.257Z,77.07
2018-10-19T19:40:05.458Z,71.57
2018-10-19T19:42:42.662Z,62.47
2018-10-19T19:45:14.106Z,75.40
2018-10-19T19:47:50.519Z,67.90
2018-10-19T19:50:22.843Z,51.80
2018-10-19T19:52:54.267Z,49.97
2018-10-19T19:55:25.666Z,99.13
2018-10-19T19:57:56.857Z,130.70
2018-10-19T20:00:33.318Z,194.00
2018-10-19T20:03:09.511Z,130.10
2018-10-19T20:05:45.977Z,67.37
2018-10-19T20:08:22.129Z,43.27
2018-10-19T20:10:58.650Z,60.67
2018-10-19T20:13:34.673Z,73.80
2018-10-19T20:16:11.401Z,62.90
2018-10-19T20:18:48.199Z,61.43
2018-10-19T20:21:24.196Z,45.00
2018-10-19T20:24:00.144Z,47.00
2018-10-19T20:26:37.872Z,49.20
2018-10-19T20:29:16.037Z,38.53
2018-10-19T20:31:52.609Z,33.37
2018-10-19T20:34:29.787Z,42.13
2018-10-19T20:44:08.156Z,61.83
2018-10-19T20:46:44.140Z,46.10
2018-10-19T20:49:21.998Z,54.87
2018-10-19T20:51:57.888Z,66.10
2018-10-19T20:54:33.727Z,65.37
2018-10-19T20:57:10.006Z,58.03
2018-10-19T20:59:46.122Z,71.17
2018-10-19T21:02:22.219Z,57.50
2018-10-19T21:04:58.575Z,50.33
2018-10-19T21:07:35.371Z,51.00
2018-10-19T21:10:12.929Z,51.97
2018-10-19T21:12:49.301Z,48.07
2018-10-19T21:15:25.308Z,50.13
2018-10-19T21:18:01.267Z,59.87
2018-10-19T21:20:37.133Z,67.33
2018-10-19T21:23:13.168Z,53.00
2018-10-19T21:25:49.489Z,43.13
2018-10-19T21:28:26.137Z,45.67
2018-10-19T21:31:02.213Z,51.37
2018-10-19T21:33:38.147Z,52.80
2018-10-19T21:36:17.796Z,46.00
2018-10-19T21:38:54.328Z,44.07
2018-10-19T21:41:30.422Z,44.47
2018-10-19T21:44:06.508Z,45.23
2018-10-19T21:46:45.099Z,60.37
2018-10-19T21:49:21.857Z,46.90
2018-10-19T21:51:57.972Z,56.63
2018-10-19T21:54:34.095Z,54.97
2018-10-19T21:57:10.188Z,48.80
2018-10-19T21:59:46.300Z,55.00
2018-10-19T22:02:22.344Z,61.93
2018-10-19T22:04:58.431Z,45.33
2018-10-19T22:07:34.808Z,43.70
2018-10-19T22:10:14.234Z,46.47
2018-10-19T22:12:50.253Z,46.63
2018-10-19T22:15:26.238Z,48.37
2018-10-19T22:18:02.501Z,44.90
2018-10-19T22:20:38.443Z,45.37
2018-10-19T22:23:14.606Z,46.53
2018-10-19T22:25:50.792Z,51.33
2018-10-19T22:31:01.863Z,72.47
2018-10-19T22:33:38.008Z,72.63
2018-10-19T22:36:13.938Z,55.80
2018-10-19T22:38:49.863Z,39.60
2018-10-19T22:41:25.794Z,50.60
2018-10-19T22:44:01.805Z,38.07
2018-10-19T22:46:37.836Z,34.53
2018-10-19T22:49:13.919Z,32.20
2018-10-19T22:51:50.108Z,36.73
2018-10-19T22:54:26.196Z,45.70
2018-10-19T22:57:02.231Z,40.87
2018-10-19T22:59:38.289Z,38.37
2018-10-19T23:02:14.366Z,42.20
2018-10-19T23:04:50.425Z,36.50
2018-10-19T23:07:26.582Z,45.90
2018-10-19T23:10:02.615Z,42.07
2018-10-19T23:12:38.516Z,37.57
2018-10-19T23:15:14.523Z,36.70
2018-10-19T23:17:50.474Z,37.77
2018-10-19T23:20:26.829Z,42.27
2018-10-19T23:23:02.753Z,56.80
2018-10-19T23:25:38.936Z,97.33
2018-10-19T23:28:14.865Z,91.27
2018-10-19T23:30:50.823Z,89.63
2018-10-19T23:33:26.721Z,79.77
2018-10-19T23:36:02.721Z,65.10
2018-10-19T23:38:38.753Z,68.17
2018-10-19T23:41:14.820Z,60.27
2018-10-19T23:43:51.091Z,49.40
2018-10-19T23:46:27.409Z,49.93
2018-10-19T23:49:03.432Z,42.73
2018-10-19T23:51:39.524Z,35.33
2018-10-19T23:54:15.488Z,46.70
2018-10-19T23:56:51.595Z,48.57
2018-10-19T23:59:27.495Z,44.27
